Flight Track Log - Related Links

Times and Time Zones

All times are in EDT time to prevent confusion due to time zone crossing. See the N373LD flight status page for this flight to view local times or setup timezone preferences in your user account.

Time Position Orientation Groundspeed Altitude Reporting Facility
EDT Latitude Longitude Course Direction KTS MPH feet Rate Location/Type
Tue 11:55:24 AM 35.8456 -101.4889 329° Northwest 153 176 8,600  Level Albuquerque Center
Tue 11:56:26 AM 35.8825 -101.5172 328° Northwest 153 176 10,000 1,500 Climbing Albuquerque Center
Tue 11:57:28 AM 35.9269 -101.5486 330° Northwest 154 177 11,700 1,452 Climbing Albuquerque Center
Tue 11:58:30 AM 35.9644 -101.5764 329° Northwest 156 180 13,000 1,355 Climbing Albuquerque Center
Tue 11:59:32 AM 36.0025 -101.6061 328° Northwest 159 183 14,500 1,355 Climbing Albuquerque Center
Tue 12:00:34 PM 36.0400 -101.6344 329° Northwest 159 183 15,800 1,210 Climbing Albuquerque Center
Tue 12:01:36 PM 36.0786 -101.6647 328° Northwest 161 185 17,000 1,113 Climbing Albuquerque Center
Tue 12:02:38 PM 36.1186 -101.6956 328° Northwest 165 190 18,100 1,306 Climbing Albuquerque Center
Tue 12:03:40 PM 36.1650 -101.7300 329° Northwest 165 190 19,700 1,355 Climbing Albuquerque Center
Tue 12:04:42 PM 36.2050 -101.7594 329° Northwest 165 190 20,900 1,161 Climbing Albuquerque Center
Tue 12:05:44 PM 36.2444 -101.7897 328° Northwest 166 191 22,100 1,161 Climbing Albuquerque Center
Tue 12:06:46 PM 36.2836 -101.8189 329° Northwest 166 191 23,300 1,161 Climbing Albuquerque Center
Tue 12:07:48 PM 36.3225 -101.8483 329° Northwest 166 191 24,500 1,065 Climbing Albuquerque Center
Tue 12:08:50 PM 36.3617 -101.8781 329° Northwest 165 190 25,500 677 Climbing Albuquerque Center
Tue 12:09:52 PM 36.4153 -101.9181 329° Northwest 183 211 25,900 194 Climbing Albuquerque Center
Tue 12:10:54 PM 36.4647 -101.9558 328° Northwest 201 231 25,900  Level Albuquerque Center
Tue 12:11:55 PM 36.5167 -101.9958 328° Northwest 215 247 25,900  Level Albuquerque Center
Tue 12:12:57 PM 36.5686 -102.0356 328° Northwest 216 249 25,900  Level Albuquerque Center
Tue 12:13:59 PM 36.6244 -102.0769 329° Northwest 216 249 25,900  Level Albuquerque Center
Tue 12:15:01 PM 36.6733 -102.1142 329° Northwest 216 249 25,900  Level Albuquerque Center
Tue 12:16:03 PM 36.7308 -102.1578 329° Northwest 216 249 25,900  Level Albuquerque Center
Tue 12:17:05 PM 36.7783 -102.1950 328° Northwest 215 247 25,900  Level Albuquerque Center
Tue 12:18:07 PM 36.8319 -102.2361 328° Northwest 214 246 25,900  Level Albuquerque Center
Tue 12:19:09 PM 36.8847 -102.2767 328° Northwest 215 247 25,900  Level Albuquerque Center
Tue 12:20:11 PM 36.9447 -102.3225 329° Northwest 221 254 25,900  Level Albuquerque Center
Tue 12:21:13 PM 36.9928 -102.3614 327° Northwest 221 254 25,900  Level Albuquerque Center
Tue 12:22:15 PM 37.0431 -102.3994 329° Northwest 218 251 25,900  Level Albuquerque Center
Tue 12:23:17 PM 37.1014 -102.4439 329° Northwest 219 252 25,900  Level Albuquerque Center
Tue 12:24:19 PM 37.1531 -102.4856 327° Northwest 219 252 25,900  Level Albuquerque Center
Tue 12:25:21 PM 37.2089 -102.5294 328° Northwest 216 249 25,900  Level Albuquerque Center
Tue 12:26:23 PM 37.2569 -102.5664 329° Northwest 213 245 25,900  Level Albuquerque Center
Tue 12:27:25 PM 37.3067 -102.6042 329° Northwest 213 245 25,900  Level Albuquerque Center
Tue 12:28:28 PM 37.3608 -102.6472 328° Northwest 212 244 25,900  Level Albuquerque Center
Tue 12:29:30 PM 37.4086 -102.6847 328° Northwest 212 244 25,900  Level Albuquerque Center
Tue 12:30:32 PM 37.4642 -102.7275 329° Northwest 212 244 25,900  Level Albuquerque Center
Tue 12:31:34 PM 37.5103 -102.7644 328° Northwest 209 241 25,900  Level Albuquerque Center
Tue 12:32:36 PM 37.5633 -102.8069 328° Northwest 207 238 25,900  Level Albuquerque Center
Tue 12:33:38 PM 37.6106 -102.8453 327° Northwest 207 238 25,900  Level Albuquerque Center
Tue 12:34:40 PM 37.6642 -102.8875 328° Northwest 207 238 25,900  Level Albuquerque Center
Tue 12:35:46 PM 37.7217 -102.9308 329° Northwest 210 242 25,900  Level Denver Center
Tue 12:37:00 PM 37.7681 -102.9678 328° Northwest 210 242 25,900  Level Denver Center
Tue 12:38:03 PM 37.8317 -103.0186 328° Northwest 210 242 25,900  Level Denver Center
Tue 12:39:05 PM 37.8789 -103.0556 328° Northwest 210 242 25,900  Level Denver Center
Tue 12:40:07 PM 37.9350 -103.1003 328° Northwest 211 243 25,900  Level Denver Center
Tue 12:41:09 PM 37.9833 -103.1392 328° Northwest 213 245 25,900  Level Denver Center
Tue 12:42:11 PM 38.0397 -103.1842 328° Northwest 213 245 25,900  Level Denver Center
Tue 12:43:13 PM 38.0786 -103.2156 328° Northwest 213 245 25,900  Level Denver Center
Tue 12:44:16 PM 38.1419 -103.2644 329° Northwest 212 244 25,900  Level Denver Center
Tue 12:45:18 PM 38.1883 -103.3033 327° Northwest 209 241 25,900  Level Denver Center
Tue 12:46:20 PM 38.2431 -103.3464 328° Northwest 208 239 25,900  Level Denver Center
Tue 12:47:22 PM 38.2886 -103.3847 327° Northwest 207 238 25,900  Level Denver Center
Tue 12:48:24 PM 38.3431 -103.4272 329° Northwest 207 238 25,900  Level Denver Center
Tue 12:49:25 PM 38.3831 -103.4578 329° Northwest 207 238 25,900  Level Denver Center
Tue 12:50:28 PM 38.4453 -103.5075 328° Northwest 207 238 25,900  Level Denver Center
Tue 12:51:30 PM 38.4931 -103.5447 329° Northwest 208 239 25,900  Level Denver Center
Tue 12:52:32 PM 38.5489 -103.5886 328° Northwest 211 243 25,900  Level Denver Center
Tue 12:53:34 PM 38.5964 -103.6250 329° Northwest 210 242 25,900  Level Denver Center
Tue 12:54:36 PM 38.6528 -103.6661 330° Northwest 210 242 25,900  Level Denver Center
Tue 12:55:38 PM 38.7000 -103.7014 330° Northwest 207 238 25,900  Level Denver Center
Tue 12:56:41 PM 38.7556 -103.7425 330° Northwest 206 237 25,900  Level Denver Center
Tue 12:57:43 PM 38.8036 -103.7772 331° Northwest 206 237 25,900  Level Denver Center
Tue 12:58:45 PM 38.8536 -103.8128 331° Northwest 209 241 25,900  Level Denver Center
Tue 12:59:47 PM 38.9022 -103.8533 327° Northwest 208 239 25,900  Level Denver Center
Tue 01:00:49 PM 38.9614 -103.9017 328° Northwest 209 241 25,900  Level Denver Center
Tue 01:02:03 PM 39.0200 -103.9492 328° Northwest 208 239 25,900  Level Denver Center
Tue 01:03:06 PM 39.0689 -103.9917 326° Northwest 209 241 25,900  Level Denver Center
Tue 01:04:08 PM 39.1172 -104.0311 328° Northwest 207 238 25,900  Level Denver Center
Tue 01:05:22 PM 39.1664 -104.0706 328° Northwest 208 239 25,900  Level Denver Center
Tue 01:06:24 PM 39.2331 -104.1278 326° Northwest 207 238 25,900  Level Denver Center
Tue 01:07:26 PM 39.2792 -104.1658 327° Northwest 201 231 25,900  Level Denver Center
Tue 01:08:29 PM 39.3250 -104.2058 326° Northwest 201 231 25,900  Level Denver Center
Tue 01:09:31 PM 39.3706 -104.2439 327° Northwest 197 227 25,900  Level Denver Center
Tue 01:10:33 PM 39.4169 -104.2822 327° Northwest 197 227 25,900  Level Denver Center
Tue 01:11:35 PM 39.4733 -104.3300 327° Northwest 200 230 25,900  Level Denver Center
Tue 01:12:37 PM 39.5181 -104.3672 327° Northwest 196 226 25,900  Level Denver Center
Tue 01:13:39 PM 39.5636 -104.4056 327° Northwest 196 226 25,900  Level Denver Center
Tue 01:14:41 PM 39.6092 -104.4447 326° Northwest 197 227 25,900  Level Denver Center
Tue 01:15:43 PM 39.6447 -104.4742 327° Northwest 195 224 25,900  Level Denver Center
Tue 01:16:45 PM 39.7089 -104.5289 327° Northwest 199 229 25,900  Level Denver Center
Tue 01:17:47 PM 39.7536 -104.5678 326° Northwest 198 228 25,900  Level Denver Center
Tue 01:18:49 PM 39.7989 -104.6050 328° Northwest 197 227 25,900  Level Denver Center
Tue 01:19:51 PM 39.8431 -104.6433 326° Northwest 196 226 25,900  Level Denver Center
Tue 01:20:53 PM 39.8886 -104.6828 326° Northwest 196 226 25,900  Level Denver Center
Tue 01:21:56 PM 39.9444 -104.7297 327° Northwest 197 227 25,900  Level Denver Center
Tue 01:22:57 PM 39.9903 -104.7700 326° Northwest 198 228 25,900  Level Denver Center
Tue 01:23:58 PM 40.0289 -104.8025 327° Northwest 205 236 25,900  Level Denver Center
Tue 01:25:01 PM 40.0844 -104.8511 326° Northwest 204 235 25,900  Level Denver Center
Tue 01:26:03 PM 40.1322 -104.8917 327° Northwest 205 236 25,900  Level Denver Center
Tue 01:27:05 PM 40.1792 -104.9331 326° Northwest 203 234 25,900  Level Denver Center
Tue 01:28:07 PM 40.2364 -104.9828 326° Northwest 206 237 25,900  Level Denver Center
Tue 01:29:08 PM 40.2861 -105.0247 327° Northwest 211 243 25,900  Level Denver Center
Tue 01:30:10 PM 40.3353 -105.0683 326° Northwest 211 243 25,900 435 Level Denver Center
Tue 01:31:12 PM 40.3839 -105.1114 326° Northwest 213 245 26,800 871 Climbing Denver Center
Tue 01:32:14 PM 40.4256 -105.1469 327° Northwest 186 214 27,700 532 Climbing Denver Center
Tue 01:33:16 PM 40.4694 -105.1856 326° Northwest 185 213 27,900 97 Climbing Denver Center
Tue 01:34:18 PM 40.5261 -105.2347 327° Northwest 201 231 27,900  Level Denver Center
Tue 01:35:20 PM 40.5753 -105.2778 326° Northwest 208 239 27,900  Level Denver Center
Tue 01:36:22 PM 40.6258 -105.3228 326° Northwest 215 247 27,900  Level Denver Center
Tue 01:37:24 PM 40.6753 -105.3667 326° Northwest 217 250 27,900  Level Denver Center
Tue 01:38:38 PM 40.7219 -105.4069 327° Northwest 206 237 27,900  Level Denver Center
Tue 01:39:40 PM 40.7664 -105.4469 326° Northwest 164 189 27,900  Level Denver Center
Tue 01:40:42 PM 40.8111 -105.4872 326° Northwest 161 185 27,900  Level Denver Center
Tue 01:41:44 PM 40.8525 -105.5244 326° Northwest 173 199 27,900  Level Denver Center
Tue 01:42:46 PM 40.8933 -105.5606 326° Northwest 177 204 27,900  Level Denver Center
Tue 01:43:48 PM 40.9367 -105.5981 327° Northwest 182 209 27,900  Level Denver Center
Tue 01:44:50 PM 40.9847 -105.6417 326° Northwest 204 235 27,900  Level Denver Center
Tue 01:45:51 PM 41.0383 -105.6906 325° Northwest 216 249 27,900  Level Denver Center
Tue 01:46:53 PM 41.0956 -105.7403 327° Northwest 220 253 27,900  Level Denver Center
Tue 01:47:55 PM 41.1453 -105.7864 325° Northwest 223 257 27,900  Level Denver Center
Tue 01:48:57 PM 41.2039 -105.8378 327° Northwest 224 258 27,900  Level Denver Center
Tue 01:49:59 PM 41.2561 -105.8858 325° Northwest 233 268 27,900  Level Denver Center
Tue 01:51:00 PM 41.2978 -105.9225 327° Northwest 230 265 27,900  Level Denver Center
Tue 01:52:03 PM 41.3497 -105.9703 325° Northwest 179 206 27,900  Level Denver Center
Tue 01:53:05 PM 41.3919 -106.0083 326° Northwest 189 217 27,900 -98 Level Denver Center
Tue 01:54:06 PM 41.4464 -106.0581 326° Northwest 209 241 27,700 -341 Descending Denver Center
Tue 01:55:08 PM 41.4972 -106.1036 326° Northwest 225 259 27,200 -484 Descending Denver Center
Tue 01:56:10 PM 41.5547 -106.1567 325° Northwest 225 259 26,700 -441 Descending Denver Center
Tue 01:57:24 PM 41.6056 -106.2017 327° Northwest 226 260 26,200 -485 Descending Denver Center
Tue 01:58:26 PM 41.6706 -106.2625 325° Northwest 226 260 25,600 -532 Descending Denver Center
Tue 01:59:28 PM 41.7197 -106.3078 326° Northwest 224 258 25,100 -484 Descending Denver Center
Tue 02:00:30 PM 41.7819 -106.3633 326° Northwest 231 266 24,600 -488 Descending Denver Center
Tue 02:01:31 PM 41.8367 -106.4133 326° Northwest 243 280 24,100 -341 Descending Denver Center
Tue 02:02:33 PM 41.8992 -106.4717 325° Northwest 245 282 23,900 -97 Descending Denver Center
Tue 02:03:35 PM 41.9431 -106.5117 326° Northwest 244 281 23,900  Level Denver Center
Tue 02:04:37 PM 42.0125 -106.5753 326° Northwest 252 290 23,900  Level Denver Center
Tue 02:05:38 PM 42.0764 -106.6347 325° Northwest 253 291 23,900  Level Denver Center
Tue 02:06:40 PM 42.1294 -106.6853 325° Northwest 247 284 23,900  Level Denver Center
Tue 02:07:42 PM 42.1844 -106.7367 325° Northwest 249 287 23,900  Level Denver Center
Tue 02:08:44 PM 42.2483 -106.7958 326° Northwest 250 288 23,900  Level Denver Center
Tue 02:09:46 PM 42.3044 -106.8481 325° Northwest 251 289 23,900  Level Denver Center
Tue 02:10:47 PM 42.3683 -106.9078 325° Northwest 251 289 23,900  Level Denver Center
Tue 02:11:49 PM 42.4233 -106.9606 325° Northwest 252 290 23,900  Level Denver Center
Tue 02:12:51 PM 42.4875 -107.0208 325° Northwest 251 289 23,900  Level Denver Center
Tue 02:13:53 PM 42.5433 -107.0719 326° Northwest 251 289 23,900  Level Denver Center
Tue 02:14:55 PM 42.6042 -107.1328 324° Northwest 248 285 23,900  Level Salt Lake Center
Tue 02:15:57 PM 42.6594 -107.1836 326° Northwest 250 288 23,900  Level Salt Lake Center
Tue 02:16:59 PM 42.7231 -107.2447 325° Northwest 250 288 23,900  Level Salt Lake Center
Tue 02:18:01 PM 42.7772 -107.2969 325° Northwest 249 287 23,900  Level Salt Lake Center
Tue 02:19:01 PM 42.8214 -107.3392 325° Northwest 249 287 23,900  Level Denver Center
Tue 02:20:02 PM 42.8836 -107.3981 325° Northwest 248 285 23,900  Level Denver Center
Tue 02:21:07 PM 42.9508 -107.4647 324° Northwest 250 288 23,900  Level Salt Lake Center
Tue 02:22:09 PM 43.0069 -107.5192 325° Northwest 248 285 23,900  Level Salt Lake Center
Tue 02:23:11 PM 43.0639 -107.5747 325° Northwest 250 288 23,900  Level Salt Lake Center
Tue 02:24:12 PM 43.1189 -107.6286 324° Northwest 248 285 23,900  Level Salt Lake Center
Tue 02:25:14 PM 43.1850 -107.6947 324° Northwest 247 284 23,900  Level Salt Lake Center
Tue 02:26:16 PM 43.2394 -107.7467 325° Northwest 245 282 23,900  Level Salt Lake Center
Tue 02:27:18 PM 43.2956 -107.8003 325° Northwest 245 282 23,900  Level Salt Lake Center
Tue 02:28:20 PM 43.3531 -107.8553 325° Northwest 248 285 23,900 48 Level Salt Lake Center
Tue 02:29:22 PM 43.4086 -107.9053 327° Northwest 246 283 24,000 48 Climbing Salt Lake Center
Tue 02:30:24 PM 43.4636 -107.9606 324° Northwest 244 281 24,000  Level Salt Lake Center
Tue 02:31:26 PM 43.5308 -108.0258 325° Northwest 245 282 24,000  Level Salt Lake Center
Tue 02:32:28 PM 43.5864 -108.0828 323° Northwest 245 282 24,000  Level Salt Lake Center
Tue 02:33:30 PM 43.6428 -108.1383 325° Northwest 246 283 24,000  Level Salt Lake Center
Tue 02:34:31 PM 43.6989 -108.1956 324° Northwest 247 284 24,000  Level Salt Lake Center
Tue 02:35:33 PM 43.7547 -108.2519 324° Northwest 248 285 24,000  Level Salt Lake Center
Tue 02:36:35 PM 43.8106 -108.3078 324° Northwest 248 285 24,000  Level Salt Lake Center
Tue 02:37:37 PM 43.8667 -108.3633 324° Northwest 248 285 24,000  Level Salt Lake Center
Tue 02:38:39 PM 43.9336 -108.4306 324° Northwest 248 285 24,000  Level Salt Lake Center
Tue 02:39:40 PM 43.9897 -108.4864 324° Northwest 248 285 24,000  Level Salt Lake Center
Tue 02:40:42 PM 44.0444 -108.5417 324° Northwest 248 285 24,000 -97 Level Salt Lake Center
Tue 02:41:44 PM 44.1011 -108.5997 324° Northwest 248 285 23,800 -823 Descending Salt Lake Center
Tue 02:42:46 PM 44.1561 -108.6550 324° Northwest 248 285 22,300 -1,887 Descending Salt Lake Center
Tue 02:43:48 PM 44.2111 -108.7103 324° Northwest 247 284 19,900 -2,341 Descending Salt Lake Center
Tue 02:44:49 PM 44.2658 -108.7656 324° Northwest 247 284 17,500 -2,361 Descending Salt Lake Center

Login

Don't have an account? Register now (free) for customized features, flight alerts, and more!